Ferdinand, Vermont
Current Conditions -  °F | °C
As of 1:15 PM on Thursday 18 Dec 2014 (Local Time) from KCDA Reporting Station
Light Rain Light Rain  
Wind Chill: 24°   Ceiling: 1700
Heat Index: 32°   Visibility: 5mi
Dew Point: 28°   Wind: 9mph
Humidity: 87%   Direction: 250°WSW
Pressure: 29.75"   Gusts: NA
Location:  44.7348°N, 71.6296°W
Report Text: KCDA 181815Z AUTO 25008KT 5SM -RA SCT009 BKN017 OVC025 00/M02 A2975 RMK AO2 T00001020
Loading
Personal Weather Stations






























Interactive Weather Map New forecast layout! Learn more

10-Day Weather Forecast

Advertisements
Track Severe Weather on mobile